Time;durP1;ratioP1;P1;durP2;ratioP2;P2;SDS_P1;SDS_P2;PMS_P1;PMS_P2;Temp;Humidity;BMP_temperature;BMP_pressure;BME280_temperature;BME280_humidity;BME280_pressure;Samples;Min_cycle;Max_cycle;Signal;HPM_P1;HPM_P2
2023/01/05 00:01:35;;;;;;;5.97;2.60;;;;;;;0.62;100.00;100967.34;1709257;83;21015;-87
2023/01/05 00:04:21;;;;;;;5.67;2.62;;;;;;;0.63;100.00;100972.20;1708587;82;21633;-89
2023/01/05 00:07:06;;;;;;;6.45;2.20;;;;;;;0.61;100.00;100955.43;1697731;82;21086;-88
2023/01/05 00:09:50;;;;;;;3.85;2.52;;;;;;;0.59;100.00;100948.92;1685319;82;21408;-88
2023/01/05 00:24:38;;;;;;;4.50;2.20;;;;;;;0.45;100.00;100946.39;1682521;84;21477;-87
2023/01/05 00:27:23;;;;;;;5.53;2.08;;;;;;;0.45;100.00;100939.66;1694030;83;21011;-88
2023/01/05 00:30:11;;;;;;;4.33;1.98;;;;;;;0.39;100.00;100934.03;1706918;84;21010;-87
2023/01/05 00:32:55;;;;;;;5.08;2.62;;;;;;;0.35;100.00;100923.38;1751763;81;20989;-87
2023/01/05 00:35:40;;;;;;;5.12;1.95;;;;;;;0.34;100.00;100914.98;1752025;80;20983;-87
2023/01/05 00:38:25;;;;;;;3.42;1.87;;;;;;;0.37;100.00;100908.37;1739942;81;21442;-88
2023/01/05 00:41:09;;;;;;;5.85;2.17;;;;;;;0.37;100.00;100902.51;1756140;81;20979;-88
2023/01/05 00:43:54;;;;;;;4.58;2.00;;;;;;;0.40;100.00;100895.90;1744296;81;21496;-88
2023/01/05 00:46:39;;;;;;;5.62;2.27;;;;;;;0.37;100.00;100889.06;1755425;81;21193;-87
2023/01/05 00:49:24;;;;;;;5.33;2.40;;;;;;;0.43;100.00;100883.39;1742785;81;21010;-88
2023/01/05 00:52:08;;;;;;;5.10;2.22;;;;;;;0.42;100.00;100873.16;1758109;80;21418;-88
2023/01/05 00:54:54;;;;;;;4.12;2.08;;;;;;;0.43;100.00;100878.02;1747108;81;21386;-88
2023/01/05 00:57:38;;;;;;;4.65;2.10;;;;;;;0.43;100.00;100880.70;1726594;82;20988;-88
2023/01/05 01:00:24;;;;;;;4.25;2.45;;;;;;;0.46;100.00;100875.44;1733724;81;21042;-88
2023/01/05 01:03:09;;;;;;;3.37;2.27;;;;;;;0.46;100.00;100860.64;1743834;81;20980;-88
2023/01/05 01:05:57;;;;;;;4.03;2.33;;;;;;;0.45;100.00;100852.28;1756340;80;21046;-87
2023/01/05 01:08:41;;;;;;;5.03;2.25;;;;;;;0.45;100.00;100864.37;1735874;82;21003;-88
2023/01/05 01:11:27;;;;;;;4.08;1.90;;;;;;;0.45;100.00;100842.87;1741734;81;20998;-89
2023/01/05 01:14:12;;;;;;;3.95;2.52;;;;;;;0.42;100.00;100835.52;1766155;81;21022;-88
2023/01/05 01:16:58;;;;;;;2.62;2.20;;;;;;;0.41;100.00;100814.20;1760123;81;21015;-88
2023/01/05 01:19:45;;;;;;;5.95;2.40;;;;;;;0.41;100.00;100812.33;1766362;81;20995;-88
2023/01/05 01:22:29;;;;;;;5.25;2.30;;;;;;;0.42;100.00;100814.00;1754554;80;21476;-87
2023/01/05 01:25:15;;;;;;;5.17;2.92;;;;;;;0.44;100.00;100804.38;1765202;80;21050;-88
2023/01/05 01:28:00;;;;;;;2.70;2.00;;;;;;;0.47;100.00;100798.61;1765420;81;21030;-87
2023/01/05 01:30:44;;;;;;;5.17;2.33;;;;;;;0.50;100.00;100788.78;1746481;81;21018;-87
2023/01/05 01:33:29;;;;;;;4.15;2.83;;;;;;;0.57;100.00;100781.55;1737871;81;20999;-89
2023/01/05 01:36:14;;;;;;;4.17;2.35;;;;;;;0.63;100.00;100771.83;1743643;81;20994;-88
2023/01/05 01:38:59;;;;;;;5.40;2.80;;;;;;;0.68;100.00;100761.27;1758446;81;21010;-88
2023/01/05 01:41:44;;;;;;;5.12;2.50;;;;;;;0.73;100.00;100750.72;1764004;80;21003;-87
2023/01/05 01:45:02;;;;;;;4.85;2.45;;;;;;;0.76;100.00;100743.58;1736113;81;21443;-89
2023/01/05 01:47:57;;;;;;;4.00;2.37;;;;;;;0.75;100.00;100728.48;1759120;81;21014;-88
2023/01/05 01:50:46;;;;;;;4.37;2.83;;;;;;;0.79;100.00;100727.04;1752412;80;21014;-88
2023/01/05 01:53:36;;;;;;;4.60;2.60;;;;;;;0.82;100.00;100703.75;1680629;84;21078;-88
2023/01/05 01:56:21;;;;;;;2.85;2.25;;;;;;;0.83;100.00;100696.50;1745422;81;21038;-88
2023/01/05 01:59:07;;;;;;;5.60;2.70;;;;;;;0.84;100.00;100678.81;1735713;81;21027;-88
2023/01/05 02:01:52;;;;;;;4.58;2.08;;;;;;;0.85;100.00;100678.28;1750467;81;21533;-89
2023/01/05 02:04:37;;;;;;;3.70;2.30;;;;;;;0.86;100.00;100674.02;1763173;80;20922;-88
2023/01/05 02:07:22;;;;;;;8.03;2.70;;;;;;;0.88;100.00;100665.75;1721418;82;21002;-89
2023/01/05 02:10:08;;;;;;;6.85;3.27;;;;;;;0.91;100.00;100660.47;1740269;81;20994;-88
2023/01/05 02:13:14;;;;;;;5.40;2.62;;;;;;;0.96;100.00;100645.86;1735645;82;21054;-88
2023/01/05 02:16:17;;;;;;;4.62;2.40;;;;;;;1.03;100.00;100634.56;1733909;81;20995;-89
2023/01/05 02:19:23;;;;;;;4.80;2.77;;;;;;;1.05;100.00;100625.77;1707885;83;21015;-87
2023/01/05 02:22:36;;;;;;;5.65;2.70;;;;;;;1.13;100.00;100626.86;1745217;81;21108;-89
2023/01/05 02:25:57;;;;;;;;;;;;;;;1.20;100.00;100621.46;1738493;82;21067;-89
2023/01/05 02:29:09;;;;;;;6.45;2.90;;;;;;;1.25;100.00;100611.70;1736553;81;20199;-88
2023/01/05 02:31:59;;;;;;;4.25;2.40;;;;;;;1.30;100.00;100605.67;1682088;83;21584;-88
2023/01/05 02:35:08;;;;;;;5.22;2.50;;;;;;;1.37;100.00;100597.05;1690431;83;21010;-89
2023/01/05 02:38:04;;;;;;;4.92;2.70;;;;;;;1.37;100.00;100589.50;1700717;83;22073;-89
2023/01/05 02:40:53;;;;;;;4.12;2.30;;;;;;;1.48;100.00;100574.83;1693006;83;21017;-88
2023/01/05 02:43:37;;;;;;;4.95;2.33;;;;;;;1.52;100.00;100557.70;1707582;83;21022;-88
2023/01/05 02:46:23;;;;;;;3.10;2.10;;;;;;;1.56;100.00;100552.20;1696806;83;21030;-88
2023/01/05 02:49:08;;;;;;;4.62;2.50;;;;;;;1.58;100.00;100548.74;1684402;83;21045;-88
2023/01/05 02:51:54;;;;;;;5.12;2.10;;;;;;;1.60;100.00;100543.97;1670807;85;21061;-88
2023/01/05 02:54:51;;;;;;;4.58;1.90;;;;;;;1.63;100.00;100538.66;1716274;82;21002;-89
2023/01/05 02:57:46;;;;;;;3.98;2.50;;;;;;;1.61;100.00;100532.17;1678749;83;21587;-88
2023/01/05 03:00:39;;;;;;;4.75;2.40;;;;;;;1.67;100.00;100521.85;1694810;83;21049;-89
2023/01/05 03:03:44;;;;;;;3.10;2.35;;;;;;;1.69;100.00;100520.30;1695833;83;21066;-88
2023/01/05 03:06:45;;;;;;;9.33;3.20;;;;;;;1.69;100.00;100520.30;1663147;85;21077;-87
2023/01/05 03:09:35;;;;;;;7.00;2.75;;;;;;;1.55;100.00;100499.89;1651072;85;21017;-88
2023/01/05 03:15:37;;;;;;;4.47;2.67;;;;;;;1.46;100.00;100482.66;1727820;81;21007;-89
2023/01/05 03:18:21;;;;;;;7.08;2.40;;;;;;;1.43;100.00;100460.70;1728623;81;20983;-88
2023/01/05 03:21:08;;;;;;;3.67;2.75;;;;;;;1.41;100.00;100456.06;1734962;81;21015;-88
2023/01/05 03:36:23;;;;;;;6.58;3.08;;;;;;;1.54;100.00;100394.03;1672257;85;21061;-87
2023/01/05 03:39:07;;;;;;;4.47;2.58;;;;;;;1.58;100.00;100379.05;1662443;84;21019;-88
2023/01/05 03:41:53;;;;;;;5.10;3.00;;;;;;;1.59;100.00;100379.37;1676814;84;21055;-89
2023/01/05 03:44:39;;;;;;;5.62;3.35;;;;;;;1.64;100.00;100370.63;1678617;84;21027;-88
2023/01/05 03:47:26;;;;;;;6.75;3.45;;;;;;;1.57;100.00;100367.17;1752170;81;20999;-88
2023/01/05 03:50:11;;;;;;;5.53;2.92;;;;;;;1.56;100.00;100360.97;1670213;81;20999;-89
2023/01/05 03:52:56;;;;;;;7.70;3.47;;;;;;;1.60;100.00;100344.65;1753076;81;20983;-88
2023/01/05 03:55:41;;;;;;;7.37;3.12;;;;;;;1.67;100.00;100342.71;1713536;83;20998;-89
2023/01/05 03:58:25;;;;;;;4.72;3.08;;;;;;;1.74;100.00;100333.75;1710203;81;21063;-88
2023/01/05 04:01:10;;;;;;;7.03;3.27;;;;;;;1.74;100.00;100331.06;1735001;81;21066;-88
2023/01/05 04:03:54;;;;;;;8.63;3.52;;;;;;;1.77;100.00;100318.48;1756057;81;21439;-89
2023/01/05 04:06:40;;;;;;;8.35;3.77;;;;;;;1.79;100.00;100317.73;1757802;81;21070;-88
2023/01/05 04:09:25;;;;;;;5.35;2.80;;;;;;;1.80;100.00;100315.33;1711360;82;20987;-88
2023/01/05 04:12:10;;;;;;;7.80;3.35;;;;;;;1.84;100.00;100309.80;1701572;82;21418;-88
2023/01/05 04:14:56;;;;;;;4.97;3.17;;;;;;;1.87;100.00;100309.34;1717476;83;21419;-88
2023/01/05 04:17:43;;;;;;;6.12;3.40;;;;;;;1.92;100.00;100311.65;1721015;82;21066;-88
2023/01/05 04:20:29;;;;;;;8.78;3.77;;;;;;;1.97;100.00;100289.41;1735109;81;20996;-88
2023/01/05 04:23:14;;;;;;;8.10;3.90;;;;;;;2.03;100.00;100289.02;1731053;81;21011;-89
2023/01/05 04:26:00;;;;;;;7.05;3.70;;;;;;;2.09;100.00;100274.13;1758142;81;21010;-89
2023/01/05 04:28:45;;;;;;;8.23;4.15;;;;;;;2.10;100.00;100277.14;1739497;81;21386;-88
2023/01/05 04:31:32;;;;;;;8.05;3.90;;;;;;;2.14;100.00;100293.66;1728808;81;21740;-88
2023/01/05 04:34:17;;;;;;;10.98;3.70;;;;;;;2.21;100.00;100305.19;1753025;81;21070;-88
2023/01/05 04:37:01;;;;;;;8.95;3.87;;;;;;;2.26;100.00;100304.51;1740973;81;20976;-88
2023/01/05 04:39:47;;;;;;;7.47;4.03;;;;;;;2.26;100.00;100299.11;1731354;81;20999;-88
2023/01/05 04:42:32;;;;;;;9.38;4.62;;;;;;;2.21;100.00;100278.22;1727619;83;20971;-88
2023/01/05 04:45:17;;;;;;;8.05;4.33;;;;;;;2.19;100.00;100266.84;1726854;81;21044;-88
2023/01/05 04:48:02;;;;;;;11.48;4.37;;;;;;;2.21;100.00;100257.19;1727528;82;20987;-88
2023/01/05 04:50:54;;;;;;;6.97;4.00;;;;;;;2.23;100.00;100251.05;1733657;81;20968;-88
2023/01/05 04:53:41;;;;;;;6.87;3.98;;;;;;;2.25;100.00;100236.28;1750429;81;21046;-88
2023/01/05 04:56:28;;;;;;;11.50;4.67;;;;;;;2.27;100.00;100238.73;1755015;81;21062;-88
2023/01/05 04:59:13;;;;;;;10.38;4.60;;;;;;;2.32;100.00;100242.91;1733885;81;21043;-88
2023/01/05 05:01:59;;;;;;;10.65;4.70;;;;;;;2.36;100.00;100240.06;1751467;81;20995;-89
2023/01/05 05:04:46;;;;;;;9.70;4.65;;;;;;;2.37;100.00;100230.91;1756587;81;21003;-88
2023/01/05 05:07:31;;;;;;;8.33;3.98;;;;;;;2.34;100.00;100221.94;1753590;81;21031;-88
2023/01/05 05:10:17;;;;;;;8.10;4.10;;;;;;;2.36;100.00;100209.05;1755667;81;21066;-88
2023/01/05 05:13:02;;;;;;;9.98;4.97;;;;;;;2.39;100.00;100196.44;1746119;81;20978;-88
2023/01/05 05:15:48;;;;;;;9.18;4.50;;;;;;;2.39;100.00;100188.34;1729955;81;21026;-89
2023/01/05 05:18:33;;;;;;;7.20;4.20;;;;;;;2.46;100.00;100187.72;1763293;81;20986;-89
2023/01/05 05:21:18;;;;;;;10.35;4.62;;;;;;;2.46;100.00;100178.81;1766722;81;21038;-89
2023/01/05 05:24:04;;;;;;;10.28;4.92;;;;;;;2.48;100.00;100173.48;1763711;81;21003;-89
2023/01/05 05:26:50;;;;;;;9.85;4.35;;;;;;;2.45;100.00;100169.06;1748589;79;20987;-85
2023/01/05 05:29:35;;;;;;;8.33;4.05;;;;;;;2.47;100.00;100166.42;1766312;81;21724;-84
2023/01/05 05:32:20;;;;;;;10.88;4.42;;;;;;;2.45;100.00;100156.42;1765363;81;20980;-86
2023/01/05 05:35:06;;;;;;;8.90;4.78;;;;;;;2.45;100.00;100153.73;1736056;82;21402;-85
2023/01/05 05:37:50;;;;;;;7.75;4.40;;;;;;;2.48;100.00;100144.34;1736714;81;20995;-85
2023/01/05 05:40:35;;;;;;;9.75;4.83;;;;;;;2.53;100.00;100133.14;1700611;84;21014;-85
2023/01/05 05:43:20;;;;;;;10.20;4.90;;;;;;;2.57;100.00;100137.02;1700595;83;21533;-85
2023/01/05 05:46:04;;;;;;;8.60;4.53;;;;;;;2.56;100.00;100138.06;1709500;83;21074;-85
2023/01/05 05:48:49;;;;;;;9.38;4.90;;;;;;;2.54;100.00;100123.17;1696108;83;21026;-85
2023/01/05 05:51:33;;;;;;;10.30;5.03;;;;;;;2.57;100.00;100124.04;1696464;83;21014;-86
2023/01/05 05:54:17;;;;;;;9.13;5.25;;;;;;;2.57;100.00;100120.84;1695950;84;21010;-85
2023/01/05 05:57:02;;;;;;;9.05;4.25;;;;;;;2.56;100.00;100113.78;1702118;83;21006;-84
2023/01/05 05:59:47;;;;;;;8.23;4.80;;;;;;;2.53;100.00;100103.47;1739883;81;21020;-85
2023/01/05 06:02:31;;;;;;;10.18;4.72;;;;;;;2.57;100.00;100107.85;1765344;80;21034;-85
2023/01/05 06:05:16;;;;;;;8.70;4.70;;;;;;;2.58;100.00;100103.59;1765791;80;21042;-85
2023/01/05 06:08:02;;;;;;;13.75;5.08;;;;;;;2.52;100.00;100106.39;1762992;80;21725;-85
2023/01/05 06:10:49;;;;;;;11.48;5.97;;;;;;;2.48;100.00;100093.10;1758168;81;21937;-85
2023/01/05 06:13:34;;;;;;;9.58;5.08;;;;;;;2.50;100.00;100097.20;1766431;80;21002;-86
2023/01/05 06:16:19;;;;;;;10.85;4.97;;;;;;;2.50;100.00;100097.20;1762766;81;21057;-85
2023/01/05 06:19:04;;;;;;;11.15;5.45;;;;;;;2.53;100.00;100085.13;1750527;81;21034;-85
2023/01/05 06:21:48;;;;;;;9.23;4.72;;;;;;;2.53;100.00;100085.13;1756436;81;20944;-85
2023/01/05 06:24:32;;;;;;;7.95;4.80;;;;;;;2.52;100.00;100077.56;1749894;80;20995;-86
2023/01/05 06:27:17;;;;;;;9.28;5.12;;;;;;;2.46;100.00;100065.00;1758244;81;21003;-85
2023/01/05 06:30:03;;;;;;;9.23;5.08;;;;;;;2.41;100.00;100060.84;1735322;81;21007;-86
2023/01/05 06:32:47;;;;;;;13.05;5.40;;;;;;;2.35;100.00;100055.06;1751450;81;21049;-86
2023/01/05 06:35:32;;;;;;;11.40;5.35;;;;;;;2.30;100.00;100053.56;1741183;81;20993;-85
2023/01/05 06:38:17;;;;;;;9.83;5.12;;;;;;;2.25;100.00;100060.19;1735736;82;21042;-86
2023/01/05 06:41:01;;;;;;;11.95;5.50;;;;;;;2.20;100.00;100038.00;1743974;81;20967;-85
2023/01/05 06:43:46;;;;;;;11.15;5.70;;;;;;;2.18;100.00;100033.87;1708414;83;21062;-86
2023/01/05 06:46:31;;;;;;;12.23;5.37;;;;;;;2.11;100.00;100029.43;1734771;82;20995;-86
2023/01/05 06:49:15;;;;;;;10.15;5.22;;;;;;;2.10;100.00;100023.76;1694817;82;21002;-86
2023/01/05 06:52:00;;;;;;;11.80;5.05;;;;;;;2.08;100.00;100013.73;1718020;82;21000;-86
2023/01/05 06:54:45;;;;;;;8.18;4.47;;;;;;;2.09;100.00;99999.19;1728570;82;21040;-85
2023/01/05 06:57:30;;;;;;;12.33;5.42;;;;;;;2.06;100.00;100017.19;1711270;82;21033;-86
2023/01/05 07:00:15;;;;;;;9.45;4.87;;;;;;;2.08;100.00;100012.92;1682253;84;21054;-85
2023/01/05 07:03:00;;;;;;;11.80;5.25;;;;;;;2.07;100.00;100001.30;1763870;80;21374;-85
2023/01/05 07:05:44;;;;;;;11.15;5.72;;;;;;;2.07;100.00;100002.64;1753569;81;20999;-86
2023/01/05 07:08:29;;;;;;;10.43;5.47;;;;;;;2.06;100.00;100004.24;1696162;83;21027;-86
2023/01/05 07:11:14;;;;;;;12.30;6.17;;;;;;;2.06;100.00;99992.92;1728192;81;21030;-85
2023/01/05 07:13:59;;;;;;;11.43;5.72;;;;;;;2.06;100.00;99984.03;1726035;83;20971;-85
2023/01/05 07:16:44;;;;;;;12.30;5.12;;;;;;;2.08;100.00;99978.69;1753310;81;21030;-86
2023/01/05 07:19:28;;;;;;;11.28;5.45;;;;;;;2.11;100.00;99968.78;1752435;80;21515;-86
2023/01/05 07:22:14;;;;;;;9.80;5.35;;;;;;;2.14;100.00;99968.30;1730291;81;21019;-85
2023/01/05 07:24:58;;;;;;;10.78;5.67;;;;;;;2.14;100.00;99971.00;1754998;81;21439;-86
2023/01/05 07:27:43;;;;;;;12.10;6.25;;;;;;;2.15;100.00;99961.88;1737281;80;20996;-85
2023/01/05 07:30:28;;;;;;;11.93;6.17;;;;;;;2.17;100.00;99952.72;1742156;81;20991;-86
2023/01/05 07:33:13;;;;;;;11.00;5.53;;;;;;;2.17;100.00;99953.53;1730238;81;21006;-86
2023/01/05 07:36:00;;;;;;;13.75;6.03;;;;;;;2.17;100.00;99939.23;1728740;81;21536;-84
2023/01/05 07:38:44;;;;;;;9.83;5.58;;;;;;;2.17;100.00;99931.97;1734773;81;21574;-85
2023/01/05 07:41:29;;;;;;;12.43;6.22;;;;;;;2.18;100.00;99927.39;1746435;81;20983;-85
2023/01/05 07:44:13;;;;;;;11.80;6.05;;;;;;;2.18;100.00;99925.54;1733756;81;21491;-84
2023/01/05 07:47:00;;;;;;;10.32;5.60;;;;;;;2.21;100.00;99922.36;1736263;81;21916;-84
2023/01/05 07:49:45;;;;;;;12.85;6.58;;;;;;;2.25;100.00;99921.34;1749036;81;21390;-83
2023/01/05 07:52:31;;;;;;;9.30;4.90;;;;;;;2.28;100.00;99900.67;1734609;80;21011;-84
2023/01/05 07:55:16;;;;;;;14.45;6.80;;;;;;;2.31;100.00;99890.75;1752728;81;20972;-85
2023/01/05 07:58:01;;;;;;;13.60;6.25;;;;;;;2.31;100.00;99889.41;1724735;82;20979;-84
2023/01/05 08:00:45;;;;;;;12.93;5.83;;;;;;;2.34;100.00;99899.17;1677174;85;21007;-84
2023/01/05 10:04:42;;;;;;;33.00;12.80;;;;;;;2.08;100.00;99656.62;1823390;77;29653;-89
2023/01/05 10:07:45;;;;;;;41.60;16.90;;;;;;;2.11;100.00;99657.47;1775152;79;22220;-91
2023/01/05 10:14:12;;;;;;;17.62;8.10;;;;;;;2.77;100.00;99654.22;1709036;81;21034;-91
2023/01/05 10:16:55;;;;;;;14.53;7.35;;;;;;;3.11;100.00;99640.09;1660803;84;21522;-91
2023/01/05 10:19:41;;;;;;;14.07;7.42;;;;;;;3.24;100.00;99629.48;1690894;84;21519;-91
2023/01/05 10:23:17;;;;;;;12.00;6.80;;;;;;;3.48;100.00;99613.00;1748521;81;21011;-93
2023/01/05 10:26:23;;;;;;;13.72;7.00;;;;;;;3.51;100.00;99611.14;1750484;79;20988;-91
2023/01/05 10:32:33;;;;;;;12.28;6.72;;;;;;;3.78;100.00;99602.52;1739735;81;21047;-94
2023/01/05 10:36:02;;;;;;;10.50;5.72;;;;;;;4.07;100.00;99598.20;1724087;81;21023;-93
2023/01/05 10:39:26;;;;;;;11.08;6.03;;;;;;;4.18;100.00;99598.58;1724747;82;21101;-94
2023/01/05 10:42:52;;;;;;;14.63;6.10;;;;;;;4.15;100.00;99586.09;1691206;83;20981;-93
2023/01/05 10:45:57;;;;;;;;;;;;;;;;;;;;;
2023/01/05 10:48:36;;;;;;;12.85;5.42;;;;;;;4.15;100.00;99577.43;1675097;84;21027;-92
2023/01/05 10:51:27;;;;;;;14.20;6.55;;;;;;;4.17;100.00;99562.31;1683730;83;20947;-93
2023/01/05 10:54:50;;;;;;;;;;;;;;;;;;;;;
2023/01/05 10:57:41;;;;;;;11.78;5.62;;;;;;;4.26;100.00;99562.12;1751569;80;21469;-94
2023/01/05 11:00:28;;;;;;;13.85;6.15;;;;;;;4.27;100.00;99542.91;1740260;81;21557;-95
2023/01/05 11:03:20;;;;;;;12.25;6.65;;;;;;;4.33;100.00;99548.35;1732214;81;21042;-93
2023/01/05 11:06:18;;;;;;;;;;;;;;;;;;;;;
2023/01/05 11:09:22;;;;;;;11.12;6.00;;;;;;;4.51;100.00;99530.36;1667234;83;21099;-93
2023/01/05 11:12:23;;;;;;;10.78;6.62;;;;;;;4.45;100.00;99539.51;1725244;80;21409;-95
2023/01/05 11:15:19;;;;;;;12.10;5.97;;;;;;;4.68;100.00;99526.13;1739080;80;21034;-92
2023/01/05 11:18:21;;;;;;;10.90;6.50;;;;;;;4.65;100.00;99522.58;1682007;83;21037;-94
2023/01/05 11:21:30;;;;;;;12.68;6.25;;;;;;;4.65;100.00;99511.75;1737571;81;20987;-93
2023/01/05 11:24:28;;;;;;;13.98;6.33;;;;;;;4.61;100.00;99510.12;1754383;81;21045;-91
2023/01/05 11:27:34;;;;;;;;;;;;;;;;;;;;;
2023/01/05 11:30:23;;;;;;;17.42;6.60;;;;;;;4.61;100.00;99512.83;1749220;81;21755;-91
2023/01/05 11:33:22;;;;;;;12.45;6.53;;;;;;;4.72;100.00;99496.93;1700321;83;21065;-93
2023/01/05 11:36:31;;;;;;;;;;;;;;;;;;;;;
2023/01/05 11:39:14;;;;;;;14.28;6.65;;;;;;;4.58;100.00;99483.59;1694725;84;21418;-93
2023/01/05 11:42:26;;;;;;;10.95;6.22;;;;;;;4.70;100.00;99496.38;1701467;82;21081;-93
2023/01/05 11:45:27;;;;;;;13.05;6.17;;;;;;;4.74;100.00;99488.53;1634795;85;21042;-95
2023/01/05 11:48:26;;;;;;;16.55;7.22;;;;;;;4.63;100.00;99475.50;1677446;84;20992;-94
2023/01/05 11:51:36;;;;;;;14.58;7.30;;;;;;;4.67;100.00;99460.37;1672305;85;21085;-93
2023/01/05 11:54:37;;;;;;;11.10;5.90;;;;;;;4.66;100.00;99479.57;1672829;85;21510;-94
2023/01/05 11:57:31;;;;;;;13.20;6.65;;;;;;;4.80;100.00;99470.41;1669512;85;21513;-94
2023/01/05 12:00:36;;;;;;;;;;;;;;;;;;;;;
2023/01/05 12:03:48;;;;;;;10.95;6.20;;;;;;;4.78;100.00;99461.22;1670073;83;21052;-93
2023/01/05 12:06:54;;;;;;;10.72;5.60;;;;;;;4.78;100.00;99450.94;1664068;85;21058;-94
2023/01/05 12:10:10;;;;;;;;;;;;;;;;;;;;;
2023/01/05 12:13:28;;;;;;;12.88;6.53;;;;;;;4.74;100.00;99441.97;1648411;85;21545;-94
2023/01/05 12:16:48;;;;;;;12.53;6.30;;;;;;;4.78;100.00;99448.23;1671396;85;21510;-93
2023/01/05 12:20:00;;;;;;;12.30;6.80;;;;;;;4.80;100.00;99435.22;1673575;85;21019;-94
2023/01/05 12:23:22;;;;;;;;;;;;;;;;;;;;;
2023/01/05 12:26:27;;;;;;;;;;;;;;;4.89;100.00;99419.55;1681358;84;21058;-93
2023/01/05 12:29:52;;;;;;;11.38;5.92;;;;;;;4.91;100.00;99428.77;1665174;85;21097;-94
2023/01/05 12:33:22;;;;;;;;;;;;;;;;;;;;;
2023/01/05 12:36:21;;;;;;;11.90;5.70;;;;;;;5.05;100.00;99413.64;1677917;84;21422;-93
2023/01/05 12:39:49;;;;;;;11.40;5.90;;;;;;;5.00;100.00;99420.95;1684362;84;21058;-93
2023/01/05 12:42:53;;;;;;;11.00;5.47;;;;;;;4.92;100.00;99408.73;1676784;84;21039;-93
2023/01/05 12:46:29;;;;;;;;;;;;;;;;;;;;;
2023/01/05 12:49:26;;;;;;;16.93;6.35;;;;;;;5.16;100.00;99412.56;1658085;83;21085;-93
2023/01/05 12:52:26;;;;;;;;;;;;;;;;;;;;;
2023/01/05 12:55:37;;;;;;;10.53;6.30;;;;;;;5.20;100.00;99399.86;1655930;84;21102;-94
2023/01/05 12:59:17;;;;;;;;;;;;;;;;;;;;;
2023/01/05 13:02:19;;;;;;;;;;;;;;;;;;;;;
2023/01/05 13:05:36;;;;;;;;;;;;;;;;;;;;;
2023/01/05 13:08:44;;;;;;;13.62;6.65;;;;;;;5.36;100.00;99400.13;1602595;88;21113;-93
2023/01/05 13:12:14;;;;;;;;;;;;;;;;;;;;;
2023/01/05 13:15:21;;;;;;;12.47;5.22;;;;;;;5.44;100.00;99394.19;1586849;89;21004;-95
2023/01/05 13:21:22;;;;;;;;;;;;;;;;;;;;;
2023/01/05 13:24:21;;;;;;;;;;;;;;;;;;;;;
2023/01/05 13:30:45;;;;;;;10.72;4.45;;;;;;;5.73;100.00;99386.83;1677828;84;21077;-95
2023/01/05 13:33:58;;;;;;;7.58;4.55;;;;;;;5.75;100.00;99383.31;1689830;82;21028;-94
2023/01/05 13:37:38;;;;;;;;;;;;;;;;;;;;;
2023/01/05 13:41:08;;;;;;;;;;;;;;;;;;;;;
2023/01/05 13:44:17;;;;;;;;;;;;;;;;;;;;;
2023/01/05 13:47:24;;;;;;;8.95;4.80;;;;;;;5.65;100.00;99373.29;1655714;84;20978;-94
2023/01/05 13:50:49;;;;;;;9.90;4.95;;;;;;;5.73;100.00;99369.20;1662673;83;21026;-94
2023/01/05 13:53:36;;;;;;;8.75;4.83;;;;;;;5.75;100.00;99369.75;1674732;85;21418;-94
2023/01/05 13:56:24;;;;;;;10.08;5.33;;;;;;;5.80;100.00;99375.97;1672171;84;21031;-94
2023/01/05 13:59:29;;;;;;;7.55;4.40;;;;;;;5.85;100.00;99370.28;1672643;83;21071;-93
2023/01/05 16:22:30;;;;;;;32.80;12.70;;;;;;;4.13;100.00;99294.36;1828947;77;23004;-92
2023/01/05 16:25:33;;;;;;;;;;;;;;;4.64;100.00;99299.87;1787393;78;21073;-94
2023/01/05 16:32:20;;;;;;;;;;;;;;;;;;;;;
2023/01/05 16:45:27;;;;;;;7.83;4.10;;;;;;;5.49;100.00;99286.31;1713024;81;20250;-93
2023/01/05 16:48:46;;;;;;;6.00;3.40;;;;;;;5.59;100.00;99284.41;1732974;81;21040;-91
2023/01/05 16:51:50;;;;;;;;;;;;;;;;;;;;;
2023/01/05 16:54:43;;;;;;;9.07;5.60;;;;;;;5.81;100.00;99285.44;1677118;84;21010;-94
2023/01/05 17:01:02;;;;;;;;;;;;;;;;;;;;;
2023/01/05 17:04:11;;;;;;;;;;;;;;;6.25;100.00;99277.13;1662621;83;21033;-94
2023/01/05 17:12:56;;;;;;;6.95;3.72;;;;;;;6.57;100.00;99267.17;1706110;82;21465;-93
2023/01/05 17:16:08;;;;;;;;;;;;;;;;;;;;;
2023/01/05 17:19:12;;;;;;;;;;;;;;;;;;;;;
2023/01/05 17:25:30;;;;;;;5.37;3.63;;;;;;;6.64;100.00;99270.39;1466848;93;21755;-95
2023/01/05 17:31:43;;;;;;;;;;;;;;;;;;;;;
2023/01/05 17:34:40;;;;;;;;;;;;;;;;;;;;;
2023/01/05 17:37:30;;;;;;;5.97;4.03;;;;;;;6.94;100.00;99274.52;1506923;94;21086;-93
2023/01/05 17:40:33;;;;;;;;;;;;;;;;;;;;;
2023/01/05 17:43:25;;;;;;;;;;;;;;;;;;;;;
2023/01/05 17:46:11;;;;;;;3.70;2.60;;;;;;;6.88;100.00;99279.99;1669380;83;21120;-93
2023/01/05 17:49:22;;;;;;;;;;;;;;;;;;;;;
2023/01/05 17:52:12;;;;;;;4.22;2.75;;;;;;;6.96;100.00;99269.63;1631804;86;21044;-93
2023/01/05 17:55:52;;;;;;;4.45;2.92;;;;;;;7.01;100.00;99276.37;1672300;83;21084;-93
2023/01/05 17:59:49;;;;;;;;;;;;;;;;;;;;;
2023/01/05 18:02:16;;;;;;;;;;;;;;;;;;;;;
2023/01/05 18:05:17;;;;;;;;;;;;;;;;;;;;;
2023/01/05 18:08:22;;;;;;;2.95;2.00;;;;;;;6.99;100.00;99286.70;1603586;87;21076;-94
2023/01/05 18:11:57;;;;;;;5.20;2.22;;;;;;;7.01;100.00;99281.80;1611251;86;21101;-94
2023/01/05 18:14:44;;;;;;;5.90;2.35;;;;;;;7.14;100.00;99281.13;1685182;84;21429;-92
2023/01/05 18:17:29;;;;;;;2.52;1.65;;;;;;;7.22;100.00;99281.06;1725085;82;20991;-91
2023/01/05 18:20:14;;;;;;;3.22;1.75;;;;;;;7.24;100.00;99282.40;1743433;81;21518;-90
2023/01/05 18:23:04;;;;;;;2.58;1.62;;;;;;;7.25;100.00;99279.95;1732976;81;21542;-90
2023/01/05 18:25:48;;;;;;;2.20;1.67;;;;;;;7.26;100.00;99286.20;1685257;83;21011;-90
2023/01/05 18:28:35;;;;;;;3.60;2.33;;;;;;;7.26;100.00;99284.28;1718998;82;20993;-89
2023/01/05 18:31:25;;;;;;;3.60;2.15;;;;;;;7.23;100.00;99287.58;1723786;81;21016;-90
2023/01/05 18:34:09;;;;;;;3.33;2.35;;;;;;;7.23;100.00;99278.63;1754232;81;21458;-89
2023/01/05 18:36:55;;;;;;;2.95;2.20;;;;;;;7.21;100.00;99287.05;1733877;81;21852;-92
2023/01/05 18:39:43;;;;;;;1.90;1.70;;;;;;;7.22;100.00;99284.61;1720226;81;20998;-91
2023/01/05 18:42:30;;;;;;;2.47;1.77;;;;;;;7.25;100.00;99282.67;1656473;86;21082;-90
2023/01/05 18:45:15;;;;;;;2.37;1.85;;;;;;;7.22;100.00;99278.34;1688822;83;21096;-90
2023/01/05 18:48:00;;;;;;;3.52;2.50;;;;;;;7.12;100.00;99277.89;1692957;83;21046;-89
2023/01/05 18:50:49;;;;;;;2.77;2.35;;;;;;;7.15;100.00;99283.33;1714236;81;21053;-91
2023/01/05 18:53:31;;;;;;;2.87;1.95;;;;;;;7.08;100.00;99278.21;1729384;81;21030;-90
2023/01/05 18:56:18;;;;;;;2.47;2.12;;;;;;;7.16;100.00;99283.58;1739869;81;20993;-90
2023/01/05 18:59:02;;;;;;;3.98;2.37;;;;;;;7.19;100.00;99291.15;1732339;81;20966;-91
2023/01/05 19:01:48;;;;;;;3.12;2.05;;;;;;;7.20;100.00;99294.95;1723965;81;20962;-90
2023/01/05 19:04:33;;;;;;;5.67;2.47;;;;;;;7.23;100.00;99289.49;1725114;83;21014;-90
2023/01/05 19:07:18;;;;;;;3.75;2.70;;;;;;;7.20;100.00;99292.79;1683375;83;21018;-92
2023/01/05 19:10:06;;;;;;;3.37;2.55;;;;;;;7.23;100.00;99289.49;1687878;83;21054;-91
2023/01/05 19:12:50;;;;;;;3.08;2.67;;;;;;;7.25;100.00;99288.11;1691548;83;21480;-92
2023/01/05 19:15:36;;;;;;;5.33;3.00;;;;;;;7.29;100.00;99283.73;1688760;84;20998;-91
2023/01/05 19:18:20;;;;;;;6.75;3.80;;;;;;;7.34;100.00;99282.85;1705106;83;21010;-90
2023/01/05 19:21:05;;;;;;;6.42;3.00;;;;;;;7.42;100.00;99290.41;1712164;83;21029;-91
2023/01/05 19:23:57;;;;;;;4.05;2.45;;;;;;;7.45;100.00;99291.73;1652351;85;21105;-90
2023/01/05 19:26:45;;;;;;;4.53;2.75;;;;;;;7.43;100.00;99294.73;1671818;83;21129;-89
2023/01/05 19:29:32;;;;;;;4.03;2.87;;;;;;;7.46;100.00;99301.50;1686433;83;21460;-90
2023/01/05 19:32:21;;;;;;;4.03;2.45;;;;;;;7.50;100.00;99298.48;1665534;85;21018;-91
2023/01/05 19:35:07;;;;;;;3.77;2.45;;;;;;;7.51;100.00;99300.09;1635803;85;20994;-92
2023/01/05 19:38:01;;;;;;;4.97;2.55;;;;;;;7.53;100.00;99300.63;1628552;86;21018;-89
2023/01/05 19:40:40;;;;;;;4.00;2.60;;;;;;;7.57;100.00;99300.31;1715663;82;21061;-90
2023/01/05 19:43:31;;;;;;;6.15;2.60;;;;;;;7.60;100.00;99300.29;1742330;81;21421;-91
2023/01/05 19:46:19;;;;;;;4.00;2.42;;;;;;;7.64;100.00;99299.95;1732498;81;21003;-90
2023/01/05 19:49:06;;;;;;;5.05;2.95;;;;;;;7.72;100.00;99296.62;1735725;82;20994;-90